createdAt,value
2023-03-17T00:00:23.199Z,964.97
2023-03-17T00:01:23.399Z,964.99
2023-03-17T00:02:23.097Z,965.03
2023-03-17T00:03:23.160Z,964.98
2023-03-17T00:04:23.044Z,965.03
2023-03-17T00:05:23.181Z,965.03
2023-03-17T00:06:23.032Z,964.99
2023-03-17T00:07:23.124Z,965.06
2023-03-17T00:08:22.983Z,965.00
2023-03-17T00:09:23.167Z,965.00
2023-03-17T00:10:22.993Z,964.92
2023-03-17T00:11:23.076Z,964.90
2023-03-17T00:12:22.966Z,964.92
2023-03-17T00:13:23.067Z,964.94
2023-03-17T00:14:22.965Z,964.91
2023-03-17T00:15:23.055Z,964.92
2023-03-17T00:16:23.055Z,964.91
2023-03-17T00:17:23.114Z,964.94
2023-03-17T00:18:22.854Z,964.88
2023-03-17T00:19:22.907Z,964.86
2023-03-17T00:20:22.882Z,964.88
2023-03-17T00:21:22.959Z,964.83
2023-03-17T00:22:22.826Z,964.79
2023-03-17T00:23:22.977Z,964.75
2023-03-17T00:24:22.805Z,964.73
2023-03-17T00:25:22.890Z,964.72
2023-03-17T00:26:22.794Z,964.70
2023-03-17T00:27:22.934Z,964.69
2023-03-17T00:28:22.737Z,964.65
2023-03-17T00:29:22.882Z,964.65
2023-03-17T00:30:22.728Z,964.64
2023-03-17T00:31:23.102Z,964.64
2023-03-17T00:32:23.567Z,964.61
2023-03-17T00:33:22.907Z,964.61
2023-03-17T00:34:22.672Z,964.65
2023-03-17T00:35:22.724Z,964.60
2023-03-17T00:36:22.730Z,964.59
2023-03-17T00:37:22.773Z,964.59
2023-03-17T00:38:22.609Z,964.58
2023-03-17T00:39:22.756Z,964.58
2023-03-17T00:40:22.598Z,964.61
2023-03-17T00:41:22.655Z,964.60
2023-03-17T00:42:22.567Z,964.62
2023-03-17T00:43:22.819Z,964.62
2023-03-17T00:44:22.588Z,964.60
2023-03-17T00:45:22.564Z,964.60
2023-03-17T00:46:22.785Z,964.61
2023-03-17T00:47:22.468Z,964.60
2023-03-17T00:48:22.772Z,964.60
2023-03-17T00:49:22.445Z,964.56
2023-03-17T00:50:22.537Z,964.57
2023-03-17T00:51:22.511Z,964.56
2023-03-17T00:52:22.434Z,964.54
2023-03-17T00:53:22.641Z,964.49
2023-03-17T00:54:22.423Z,964.51
2023-03-17T00:55:22.444Z,964.48
2023-03-17T00:56:22.370Z,964.49
2023-03-17T00:57:22.463Z,964.51
2023-03-17T00:58:22.372Z,964.49
2023-03-17T00:59:22.588Z,964.47
2023-03-17T01:00:22.328Z,964.47
2023-03-17T01:01:22.514Z,964.45
2023-03-17T01:02:22.302Z,964.47
2023-03-17T01:03:22.547Z,964.48
2023-03-17T01:04:22.330Z,964.46
2023-03-17T01:05:22.414Z,964.45
2023-03-17T01:06:22.278Z,964.43
2023-03-17T01:07:22.327Z,964.44
2023-03-17T01:08:22.232Z,964.42
2023-03-17T01:09:22.382Z,964.42
2023-03-17T01:10:22.203Z,964.43
2023-03-17T01:11:22.365Z,964.42
2023-03-17T01:12:22.362Z,964.41
2023-03-17T01:13:22.129Z,964.38
2023-03-17T01:14:22.342Z,964.38
2023-03-17T01:15:22.106Z,964.32
2023-03-17T01:16:22.329Z,964.26
2023-03-17T01:17:22.295Z,964.22
2023-03-17T01:18:22.139Z,964.20
2023-03-17T01:19:22.264Z,964.17
2023-03-17T01:20:22.067Z,964.17
2023-03-17T01:21:22.259Z,964.18
2023-03-17T01:22:22.054Z,964.18
2023-03-17T01:23:22.310Z,964.15
2023-03-17T01:24:22.062Z,964.15
2023-03-17T01:25:22.183Z,964.15
2023-03-17T01:26:23.930Z,964.14
2023-03-17T01:27:22.063Z,964.13
2023-03-17T01:28:21.962Z,964.12
2023-03-17T01:29:22.075Z,964.06
2023-03-17T01:30:21.973Z,964.06
2023-03-17T01:31:22.098Z,964.05
2023-03-17T01:32:21.925Z,964.05
2023-03-17T01:33:22.131Z,964.06
2023-03-17T01:34:21.906Z,964.04
2023-03-17T01:35:22.113Z,964.04
2023-03-17T01:36:21.898Z,964.08
2023-03-17T01:37:21.924Z,964.09
2023-03-17T01:38:21.949Z,964.08
2023-03-17T01:39:21.792Z,964.16
2023-03-17T01:40:22.004Z,964.09
2023-03-17T01:41:21.784Z,964.14
2023-03-17T01:42:21.972Z,964.14
2023-03-17T01:43:21.753Z,964.17
2023-03-17T01:44:21.998Z,964.17
2023-03-17T01:45:21.736Z,964.15
2023-03-17T01:46:22.069Z,964.15
2023-03-17T01:47:21.698Z,964.14
2023-03-17T01:48:21.810Z,964.16
2023-03-17T01:49:21.700Z,964.14
2023-03-17T01:50:21.928Z,964.13
2023-03-17T01:51:21.678Z,964.14
2023-03-17T01:52:21.841Z,964.15
2023-03-17T01:53:21.626Z,964.16
2023-03-17T01:54:21.847Z,964.13
2023-03-17T01:55:21.623Z,964.13
2023-03-17T01:56:21.939Z,964.11
2023-03-17T01:57:21.573Z,964.04
2023-03-17T01:58:21.721Z,964.07
2023-03-17T01:59:21.561Z,964.04
2023-03-17T02:00:21.700Z,964.04
2023-03-17T02:01:21.639Z,964.04
2023-03-17T02:02:21.795Z,964.04
2023-03-17T02:03:21.495Z,964.02
2023-03-17T02:04:21.834Z,964.00
2023-03-17T02:05:21.462Z,963.96
2023-03-17T02:06:21.634Z,963.94
2023-03-17T02:07:21.475Z,963.97
2023-03-17T02:08:21.647Z,963.93
2023-03-17T02:09:21.533Z,963.98
2023-03-17T02:10:21.441Z,963.99
2023-03-17T02:11:21.552Z,964.00
2023-03-17T02:12:21.416Z,964.00
2023-03-17T02:13:21.602Z,964.01
2023-03-17T02:14:21.377Z,964.00
2023-03-17T02:15:21.582Z,964.03
2023-03-17T02:16:21.376Z,964.03
2023-03-17T02:17:21.488Z,964.04
2023-03-17T02:18:21.352Z,964.03
2023-03-17T02:19:21.435Z,964.01
2023-03-17T02:20:21.312Z,964.04
2023-03-17T02:21:21.518Z,964.01
2023-03-17T02:22:21.293Z,964.01
2023-03-17T02:23:21.529Z,963.98
2023-03-17T02:24:21.298Z,963.98
2023-03-17T02:25:21.379Z,963.94
2023-03-17T02:26:21.231Z,963.94
2023-03-17T02:27:21.344Z,963.93
2023-03-17T02:28:21.203Z,963.93
2023-03-17T02:29:21.319Z,963.96
2023-03-17T02:30:21.352Z,963.92
2023-03-17T02:31:21.231Z,963.95
2023-03-17T02:32:21.304Z,963.98
2023-03-17T02:33:21.128Z,963.93
2023-03-17T02:34:21.317Z,963.91
2023-03-17T02:35:21.344Z,963.90
2023-03-17T02:36:21.134Z,963.90
2023-03-17T02:37:21.321Z,963.91
2023-03-17T02:38:21.087Z,963.91
2023-03-17T02:39:21.244Z,963.87
2023-03-17T02:40:21.204Z,963.89
2023-03-17T02:41:21.029Z,963.90
2023-03-17T02:42:21.182Z,963.90
2023-03-17T02:43:20.986Z,963.93
2023-03-17T02:44:21.198Z,963.95
2023-03-17T02:45:21.000Z,963.92
2023-03-17T02:46:21.117Z,963.94
2023-03-17T02:47:20.944Z,963.95
2023-03-17T02:48:21.227Z,963.96
2023-03-17T02:49:20.919Z,963.96
2023-03-17T02:50:21.067Z,963.97
2023-03-17T02:51:20.885Z,963.95
2023-03-17T02:52:21.044Z,963.92
2023-03-17T02:53:20.858Z,963.97
2023-03-17T02:54:21.044Z,963.94
2023-03-17T02:55:20.879Z,963.92
2023-03-17T02:56:21.030Z,963.93
2023-03-17T02:57:20.822Z,963.92
2023-03-17T02:58:20.971Z,963.90
2023-03-17T02:59:20.805Z,963.88
2023-03-17T03:00:20.989Z,963.86
2023-03-17T03:01:21.066Z,963.84
2023-03-17T03:02:20.846Z,963.86
2023-03-17T03:03:20.890Z,963.89
2023-03-17T03:04:20.753Z,963.84
2023-03-17T03:05:21.012Z,963.79
2023-03-17T03:06:21.028Z,963.80
2023-03-17T03:07:20.721Z,963.79
2023-03-17T03:08:20.854Z,963.82
2023-03-17T03:09:20.698Z,963.85
2023-03-17T03:10:26.940Z,963.84
2023-03-17T03:11:20.861Z,963.91
2023-03-17T03:12:20.683Z,963.89
2023-03-17T03:13:20.872Z,963.86
2023-03-17T03:14:20.627Z,963.81
2023-03-17T03:15:20.815Z,963.80
2023-03-17T03:16:20.628Z,963.81
2023-03-17T03:17:20.695Z,963.76
2023-03-17T03:18:20.597Z,963.78
2023-03-17T03:19:20.740Z,963.77
2023-03-17T03:20:20.545Z,963.71
2023-03-17T03:21:20.723Z,963.72
2023-03-17T03:22:20.570Z,963.75
2023-03-17T03:23:20.772Z,963.77
2023-03-17T03:24:20.498Z,963.77
2023-03-17T03:25:20.748Z,963.81
2023-03-17T03:26:20.495Z,963.84
2023-03-17T03:27:20.662Z,963.85
2023-03-17T03:28:20.475Z,963.85
2023-03-17T03:29:20.601Z,963.82
2023-03-17T03:30:20.426Z,963.85
2023-03-17T03:31:20.753Z,963.82
2023-03-17T03:32:20.611Z,963.80
2023-03-17T03:33:20.360Z,963.80
2023-03-17T03:34:20.594Z,963.72
2023-03-17T03:35:21.104Z,963.74
2023-03-17T03:36:20.644Z,963.77
2023-03-17T03:37:20.309Z,963.79
2023-03-17T03:38:20.545Z,963.83
2023-03-17T03:39:20.287Z,963.77
2023-03-17T03:40:20.505Z,963.83
2023-03-17T03:41:20.321Z,963.87
2023-03-17T03:42:20.471Z,963.85
2023-03-17T03:43:23.635Z,963.82
2023-03-17T03:44:20.440Z,963.82
2023-03-17T03:45:20.246Z,963.83
2023-03-17T03:46:20.508Z,963.83
2023-03-17T03:47:20.213Z,963.83
2023-03-17T03:48:20.516Z,963.82
2023-03-17T03:49:20.190Z,963.80
2023-03-17T03:50:20.338Z,963.83
2023-03-17T03:51:20.152Z,963.75
2023-03-17T03:52:20.313Z,963.80
2023-03-17T03:53:20.232Z,963.78
2023-03-17T03:54:20.084Z,963.76
2023-03-17T03:55:20.308Z,963.75
2023-03-17T03:56:20.107Z,963.75
2023-03-17T03:57:20.313Z,963.75
2023-03-17T03:58:20.256Z,963.76
2023-03-17T03:59:20.065Z,963.78
2023-03-17T04:00:20.067Z,963.77
2023-03-17T04:01:20.064Z,963.76
2023-03-17T04:02:20.270Z,963.74
2023-03-17T04:03:20.010Z,963.71
2023-03-17T04:04:20.042Z,963.74
2023-03-17T04:05:19.976Z,963.72
2023-03-17T04:06:19.998Z,963.75
2023-03-17T04:07:19.994Z,963.74
2023-03-17T04:08:20.013Z,963.74
2023-03-17T04:09:19.933Z,963.74
2023-03-17T04:10:19.933Z,963.74
2023-03-17T04:11:19.898Z,963.70
2023-03-17T04:12:19.972Z,963.69
2023-03-17T04:13:19.888Z,963.68
2023-03-17T04:14:19.985Z,963.70
2023-03-17T04:15:19.876Z,963.73
2023-03-17T04:16:20.644Z,963.67
2023-03-17T04:17:19.847Z,963.70
2023-03-17T04:18:19.998Z,963.70
2023-03-17T04:19:19.889Z,963.66
2023-03-17T04:20:19.766Z,963.67
2023-03-17T04:21:19.812Z,963.64
2023-03-17T04:22:19.734Z,963.64
2023-03-17T04:23:19.835Z,963.59
2023-03-17T04:24:19.876Z,963.62
2023-03-17T04:25:19.748Z,963.62
2023-03-17T04:26:19.731Z,963.62
2023-03-17T04:27:19.709Z,963.64
2023-03-17T04:28:19.847Z,963.66
2023-03-17T04:29:19.711Z,963.66
2023-03-17T04:30:19.662Z,963.64
2023-03-17T04:31:19.694Z,963.60
2023-03-17T04:32:19.667Z,963.58
2023-03-17T04:33:19.646Z,963.62
2023-03-17T04:34:19.742Z,963.59
2023-03-17T04:35:19.603Z,963.62
2023-03-17T04:36:19.699Z,963.60
2023-03-17T04:37:19.566Z,963.55
2023-03-17T04:38:19.610Z,963.58
2023-03-17T04:39:19.578Z,963.57
2023-03-17T04:40:19.769Z,963.56
2023-03-17T04:41:19.547Z,963.58
2023-03-17T04:42:19.530Z,963.54
2023-03-17T04:43:19.494Z,963.54
2023-03-17T04:44:19.689Z,963.53
2023-03-17T04:45:19.507Z,963.54
2023-03-17T04:46:19.428Z,963.53
2023-03-17T04:47:19.490Z,963.54
2023-03-17T04:48:19.412Z,963.51
2023-03-17T04:49:19.507Z,963.48
2023-03-17T04:50:19.460Z,963.50
2023-03-17T04:51:19.420Z,963.50
2023-03-17T04:52:19.511Z,963.46
2023-03-17T04:53:19.362Z,963.50
2023-03-17T04:54:19.514Z,963.48
2023-03-17T04:55:19.342Z,963.49
2023-03-17T04:56:19.363Z,963.51
2023-03-17T04:57:19.306Z,963.50
2023-03-17T04:58:30.315Z,963.49
2023-03-17T04:59:19.309Z,963.50
2023-03-17T05:00:19.360Z,963.49
2023-03-17T05:01:19.348Z,963.48
2023-03-17T05:02:19.379Z,963.49
2023-03-17T05:03:26.789Z,963.47
2023-03-17T05:04:30.773Z,963.50
2023-03-17T05:05:19.223Z,963.43
2023-03-17T05:06:19.345Z,963.43
2023-03-17T05:07:19.197Z,963.42
2023-03-17T05:08:19.211Z,963.40
2023-03-17T05:09:19.161Z,963.36
2023-03-17T05:10:19.226Z,963.39
2023-03-17T05:11:19.313Z,963.37
2023-03-17T05:12:19.109Z,963.35
2023-03-17T05:13:19.186Z,963.35
2023-03-17T05:14:19.122Z,963.38
2023-03-17T05:15:19.167Z,963.34
2023-03-17T05:16:19.131Z,963.33
2023-03-17T05:17:19.297Z,963.30
2023-03-17T05:18:19.020Z,963.31
2023-03-17T05:19:19.874Z,963.31
2023-03-17T05:20:18.993Z,963.32
2023-03-17T05:21:19.168Z,963.32
2023-03-17T05:22:18.986Z,963.32
2023-03-17T05:23:19.115Z,963.34
2023-03-17T05:24:18.943Z,963.36
2023-03-17T05:25:19.151Z,963.42
2023-03-17T05:26:18.944Z,963.43
2023-03-17T05:27:19.001Z,963.49
2023-03-17T05:28:18.900Z,963.46
2023-03-17T05:29:18.984Z,963.50
2023-03-17T05:30:18.875Z,963.51
2023-03-17T05:31:19.007Z,963.51
2023-03-17T05:32:19.010Z,963.50
2023-03-17T05:33:18.844Z,963.51
2023-03-17T05:34:18.948Z,963.51
2023-03-17T05:35:18.849Z,963.50
2023-03-17T05:36:19.020Z,963.50
2023-03-17T05:37:18.973Z,963.50
2023-03-17T05:38:18.781Z,963.50
2023-03-17T05:39:19.010Z,963.48
2023-03-17T05:40:18.771Z,963.51
2023-03-17T05:41:18.948Z,963.53
2023-03-17T05:42:18.737Z,963.56
2023-03-17T05:43:18.803Z,963.57
2023-03-17T05:44:18.697Z,963.61
2023-03-17T05:45:18.833Z,963.56
2023-03-17T05:46:20.463Z,963.55
2023-03-17T05:47:18.828Z,963.55
2023-03-17T05:48:18.822Z,963.55
2023-03-17T05:49:18.683Z,963.57
2023-03-17T05:50:18.690Z,963.57
2023-03-17T05:51:18.938Z,963.61
2023-03-17T05:52:18.701Z,963.58
2023-03-17T05:53:18.743Z,963.60
2023-03-17T05:54:18.638Z,963.59
2023-03-17T05:55:18.626Z,963.55
2023-03-17T05:56:18.573Z,963.56
2023-03-17T05:57:18.662Z,963.53
2023-03-17T05:58:18.610Z,963.51
2023-03-17T05:59:18.608Z,963.53
2023-03-17T06:00:18.578Z,963.50
2023-03-17T06:01:18.518Z,963.49
2023-03-17T06:02:18.739Z,963.48
2023-03-17T06:03:18.524Z,963.50
2023-03-17T06:04:18.700Z,963.46
2023-03-17T06:05:18.506Z,963.48
2023-03-17T06:06:18.510Z,963.47
2023-03-17T06:07:18.466Z,963.47
2023-03-17T06:08:18.521Z,963.51
2023-03-17T06:09:18.524Z,963.51
2023-03-17T06:10:18.367Z,963.56
2023-03-17T06:11:18.439Z,963.62
2023-03-17T06:12:18.410Z,963.63
2023-03-17T06:13:18.463Z,963.65
2023-03-17T06:14:18.566Z,963.59
2023-03-17T06:15:18.364Z,963.57
2023-03-17T06:16:18.546Z,963.57
2023-03-17T06:17:18.307Z,963.54
2023-03-17T06:18:18.426Z,963.53
2023-03-17T06:19:18.397Z,963.54
2023-03-17T06:20:18.236Z,963.53
2023-03-17T06:21:18.465Z,963.54
2023-03-17T06:22:18.214Z,963.49
2023-03-17T06:23:18.424Z,963.57
2023-03-17T06:24:18.189Z,963.57
2023-03-17T06:25:18.332Z,963.55
2023-03-17T06:26:18.186Z,963.57
2023-03-17T06:27:18.411Z,963.54
2023-03-17T06:28:18.135Z,963.57
2023-03-17T06:29:18.381Z,963.57
2023-03-17T06:30:18.133Z,963.61
2023-03-17T06:31:18.217Z,963.62
2023-03-17T06:32:20.850Z,963.62
2023-03-17T06:33:18.343Z,963.61
2023-03-17T06:34:18.069Z,963.65
2023-03-17T06:35:18.207Z,963.66
2023-03-17T06:36:18.040Z,963.61
2023-03-17T06:37:18.226Z,963.62
2023-03-17T06:38:18.078Z,963.62
2023-03-17T06:39:18.140Z,963.60
2023-03-17T06:40:18.134Z,963.62
2023-03-17T06:41:18.008Z,963.61
2023-03-17T06:42:18.047Z,963.56
2023-03-17T06:43:17.996Z,963.57
2023-03-17T06:44:18.070Z,963.58
2023-03-17T06:45:17.973Z,963.60
2023-03-17T06:46:17.987Z,963.61
2023-03-17T06:47:17.940Z,963.64
2023-03-17T06:48:18.088Z,963.61
2023-03-17T06:49:17.900Z,963.64
2023-03-17T06:50:18.024Z,963.63
2023-03-17T06:51:17.890Z,963.64
2023-03-17T06:52:17.910Z,963.64
2023-03-17T06:53:17.840Z,963.59
2023-03-17T06:54:17.942Z,963.61
2023-03-17T06:55:17.857Z,963.58
2023-03-17T06:56:29.498Z,963.55
2023-03-17T06:57:17.804Z,963.58
2023-03-17T06:58:17.848Z,963.61
2023-03-17T06:59:17.782Z,963.63
2023-03-17T07:00:17.896Z,963.60
2023-03-17T07:01:17.816Z,963.63
2023-03-17T07:02:17.756Z,963.62
2023-03-17T07:03:17.737Z,963.64
2023-03-17T07:04:17.885Z,963.60
2023-03-17T07:05:17.708Z,963.57
2023-03-17T07:06:17.835Z,963.62
2023-03-17T07:07:17.713Z,963.63
2023-03-17T07:08:17.730Z,963.63
2023-03-17T07:09:17.649Z,963.62
2023-03-17T07:10:17.764Z,963.57
2023-03-17T07:11:17.637Z,963.60
2023-03-17T07:12:17.675Z,963.61
2023-03-17T07:13:17.604Z,963.61
2023-03-17T07:14:17.750Z,963.63
2023-03-17T07:15:17.619Z,963.67
2023-03-17T07:16:17.720Z,963.68
2023-03-17T07:17:17.634Z,963.71
2023-03-17T07:18:17.510Z,963.70
2023-03-17T07:19:17.703Z,963.71
2023-03-17T07:20:17.535Z,963.74
2023-03-17T07:21:17.822Z,963.71
2023-03-17T07:22:17.544Z,963.69
2023-03-17T07:23:17.508Z,963.70
2023-03-17T07:24:17.514Z,963.71
2023-03-17T07:25:17.466Z,963.75
2023-03-17T07:26:17.547Z,963.74
2023-03-17T07:27:17.603Z,963.71
2023-03-17T07:28:17.405Z,963.69
2023-03-17T07:29:17.470Z,963.72
2023-03-17T07:30:17.374Z,963.71
2023-03-17T07:31:17.540Z,963.70
2023-03-17T07:32:17.384Z,963.73
2023-03-17T07:33:17.503Z,963.74
2023-03-17T07:34:17.365Z,963.75
2023-03-17T07:35:17.501Z,963.78
2023-03-17T07:36:17.323Z,963.77
2023-03-17T07:37:17.474Z,963.78
2023-03-17T07:38:17.308Z,963.79
2023-03-17T07:39:17.336Z,963.74
2023-03-17T07:40:17.237Z,963.74
2023-03-17T07:41:17.400Z,963.72
2023-03-17T07:42:17.228Z,963.73
2023-03-17T07:43:17.445Z,963.64
2023-03-17T07:44:17.181Z,963.64
2023-03-17T07:45:17.456Z,963.65
2023-03-17T07:46:17.214Z,963.63
2023-03-17T07:47:17.388Z,963.57
2023-03-17T07:48:17.376Z,963.49
2023-03-17T07:49:18.212Z,963.51
2023-03-17T07:50:17.196Z,963.52
2023-03-17T07:51:17.128Z,963.51
2023-03-17T07:52:17.183Z,963.51
2023-03-17T07:53:17.176Z,963.48
2023-03-17T07:54:17.076Z,963.52
2023-03-17T07:55:17.280Z,963.57
2023-03-17T07:56:17.038Z,963.59
2023-03-17T07:57:17.312Z,963.59
2023-03-17T07:58:17.025Z,963.57
2023-03-17T07:59:17.265Z,963.61
2023-03-17T08:00:17.039Z,963.55
2023-03-17T08:01:17.049Z,963.59
2023-03-17T08:02:17.095Z,963.60
2023-03-17T08:03:17.204Z,963.61
2023-03-17T08:04:16.966Z,963.57
2023-03-17T08:05:17.170Z,963.58
2023-03-17T08:06:17.016Z,963.59
2023-03-17T08:07:17.038Z,963.58
2023-03-17T08:08:16.889Z,963.57
2023-03-17T08:09:17.009Z,963.56
2023-03-17T08:10:16.978Z,963.55
2023-03-17T08:11:17.461Z,963.50
2023-03-17T08:12:17.018Z,963.49
2023-03-17T08:13:16.968Z,963.52
2023-03-17T08:14:16.966Z,963.53
2023-03-17T08:15:17.528Z,963.53
2023-03-17T08:16:17.150Z,963.55
2023-03-17T08:17:16.786Z,963.55
2023-03-17T08:18:16.959Z,963.58
2023-03-17T08:19:16.923Z,963.57
2023-03-17T08:20:16.811Z,963.57
2023-03-17T08:21:17.618Z,963.53
2023-03-17T08:22:16.900Z,963.52
2023-03-17T08:23:16.867Z,963.53
2023-03-17T08:24:16.759Z,963.54
2023-03-17T08:25:16.902Z,963.50
2023-03-17T08:26:16.688Z,963.57
2023-03-17T08:27:16.794Z,963.57
2023-03-17T08:28:16.651Z,963.55
2023-03-17T08:29:16.763Z,963.53
2023-03-17T08:30:16.659Z,963.54
2023-03-17T08:31:16.724Z,963.53
2023-03-17T08:32:16.597Z,963.48
2023-03-17T08:33:16.945Z,963.50
2023-03-17T08:34:16.592Z,963.49
2023-03-17T08:35:16.829Z,963.47
2023-03-17T08:36:16.618Z,963.46
2023-03-17T08:37:16.599Z,963.49
2023-03-17T08:38:16.722Z,963.45
2023-03-17T08:39:16.815Z,963.43
2023-03-17T08:40:16.701Z,963.44
2023-03-17T08:41:16.510Z,963.44
2023-03-17T08:42:16.553Z,963.45
2023-03-17T08:43:16.512Z,963.39
2023-03-17T08:44:16.991Z,963.38
2023-03-17T08:45:16.540Z,963.36
2023-03-17T08:46:16.474Z,963.36
2023-03-17T08:47:16.708Z,963.37
2023-03-17T08:48:16.861Z,963.38
2023-03-17T08:49:16.544Z,963.34
2023-03-17T08:50:16.412Z,963.33
2023-03-17T08:51:18.584Z,963.36
2023-03-17T08:52:16.449Z,963.36
2023-03-17T08:53:16.371Z,963.34
2023-03-17T08:54:16.550Z,963.34
2023-03-17T08:55:16.386Z,963.37
2023-03-17T08:56:16.452Z,963.37
2023-03-17T08:57:16.425Z,963.36
2023-03-17T08:58:16.443Z,963.36
2023-03-17T08:59:17.021Z,963.35
2023-03-17T09:00:16.986Z,963.29
2023-03-17T09:01:16.317Z,963.31
2023-03-17T09:02:16.643Z,963.33
2023-03-17T09:03:16.161Z,963.24
2023-03-17T09:04:16.267Z,963.25
2023-03-17T09:05:16.177Z,963.22
2023-03-17T09:06:16.363Z,963.21
2023-03-17T09:07:16.141Z,963.19
2023-03-17T09:08:16.266Z,963.17
2023-03-17T09:09:16.118Z,963.22
2023-03-17T09:10:16.240Z,963.16
2023-03-17T09:11:16.212Z,963.15
2023-03-17T09:12:16.098Z,963.17
2023-03-17T09:13:16.265Z,963.17
2023-03-17T09:14:16.300Z,963.17
2023-03-17T09:15:16.324Z,963.14
2023-03-17T09:16:16.240Z,963.16
2023-03-17T09:17:16.093Z,963.14
2023-03-17T09:18:16.077Z,963.13
2023-03-17T09:19:16.162Z,963.14
2023-03-17T09:20:16.111Z,963.14
2023-03-17T09:21:16.184Z,963.15
2023-03-17T09:22:15.999Z,963.10
2023-03-17T09:23:16.085Z,963.11
2023-03-17T09:24:15.922Z,963.11
2023-03-17T09:25:16.004Z,963.11
2023-03-17T09:26:15.919Z,963.14
2023-03-17T09:27:16.010Z,963.13
2023-03-17T09:28:15.909Z,963.17
2023-03-17T09:29:16.069Z,963.15
2023-03-17T09:30:15.863Z,963.20
2023-03-17T09:31:16.104Z,963.15
2023-03-17T09:32:15.849Z,963.14
2023-03-17T09:33:15.853Z,963.13
2023-03-17T09:34:15.813Z,963.10
2023-03-17T09:35:15.872Z,963.14
2023-03-17T09:36:15.822Z,963.11
2023-03-17T09:37:15.920Z,963.15
2023-03-17T09:38:15.792Z,963.16
2023-03-17T09:39:15.959Z,963.19
2023-03-17T09:40:15.722Z,963.18
2023-03-17T09:41:15.824Z,963.18
2023-03-17T09:42:15.721Z,963.17
2023-03-17T09:43:15.835Z,963.24
2023-03-17T09:44:15.678Z,963.21
2023-03-17T09:45:15.782Z,963.18
2023-03-17T09:46:18.547Z,963.17
2023-03-17T09:47:15.740Z,963.19
2023-03-17T09:48:15.816Z,963.15
2023-03-17T09:49:15.641Z,963.20
2023-03-17T09:50:15.808Z,963.21
2023-03-17T09:51:15.554Z,963.23
2023-03-17T09:52:16.098Z,963.15
2023-03-17T09:53:15.607Z,963.16
2023-03-17T09:54:15.738Z,963.19
2023-03-17T09:55:15.543Z,963.22
2023-03-17T09:56:15.676Z,963.22
2023-03-17T09:57:15.509Z,963.20
2023-03-17T09:58:15.637Z,963.21
2023-03-17T09:59:15.458Z,963.25
2023-03-17T10:00:15.649Z,963.29
2023-03-17T10:01:15.487Z,963.25
2023-03-17T10:02:15.563Z,963.31
2023-03-17T10:03:15.422Z,963.32
2023-03-17T10:04:18.325Z,963.28
2023-03-17T10:05:15.449Z,963.32
2023-03-17T10:06:15.700Z,963.20
2023-03-17T10:07:15.332Z,963.22
2023-03-17T10:08:29.970Z,963.26
2023-03-17T10:09:15.446Z,963.20
2023-03-17T10:10:15.476Z,963.13
2023-03-17T10:11:15.350Z,963.08
2023-03-17T10:12:15.523Z,963.06
2023-03-17T10:13:15.296Z,963.16
2023-03-17T10:14:15.441Z,963.17
2023-03-17T10:15:15.567Z,963.10
2023-03-17T10:16:15.624Z,963.10
2023-03-17T10:17:15.213Z,963.08
2023-03-17T10:18:15.465Z,963.03
2023-03-17T10:19:15.199Z,962.99
2023-03-17T10:20:15.293Z,963.04
2023-03-17T10:21:15.224Z,962.94
2023-03-17T10:22:15.305Z,962.99
2023-03-17T10:23:15.230Z,962.96
2023-03-17T10:24:15.310Z,962.95
2023-03-17T10:25:15.197Z,962.87
2023-03-17T10:26:15.250Z,962.88
2023-03-17T10:27:15.242Z,962.89
2023-03-17T10:28:15.175Z,962.95
2023-03-17T10:29:15.255Z,962.92
2023-03-17T10:30:15.056Z,962.97
2023-03-17T10:31:15.305Z,962.91
2023-03-17T10:32:15.098Z,962.88
2023-03-17T10:33:15.155Z,962.80
2023-03-17T10:34:15.069Z,962.76
2023-03-17T10:35:15.284Z,962.76
2023-03-17T10:36:15.049Z,962.74
2023-03-17T10:37:15.110Z,962.74
2023-03-17T10:38:15.028Z,962.65
2023-03-17T10:39:15.082Z,962.66
2023-03-17T10:40:14.964Z,962.57
2023-03-17T10:41:15.029Z,962.53
2023-03-17T10:42:14.945Z,962.57
2023-03-17T10:43:15.097Z,962.59
2023-03-17T10:44:14.984Z,962.53
2023-03-17T10:45:15.154Z,962.52
2023-03-17T10:46:14.899Z,962.52
2023-03-17T10:47:15.114Z,962.49
2023-03-17T10:48:14.896Z,962.52
2023-03-17T10:49:14.949Z,962.47
2023-03-17T10:50:14.812Z,962.48
2023-03-17T10:51:15.010Z,962.55
2023-03-17T10:52:14.818Z,962.51
2023-03-17T10:53:14.939Z,962.52
2023-03-17T10:54:14.794Z,962.54
2023-03-17T10:55:14.905Z,962.56
2023-03-17T10:56:14.763Z,962.49
2023-03-17T10:57:14.895Z,962.51
2023-03-17T10:58:14.749Z,962.45
2023-03-17T10:59:14.902Z,962.45
2023-03-17T11:00:14.808Z,962.50
2023-03-17T11:01:14.883Z,962.47
2023-03-17T11:02:14.817Z,962.45
2023-03-17T11:03:14.654Z,962.39
2023-03-17T11:04:14.852Z,962.40
2023-03-17T11:05:14.621Z,962.42
2023-03-17T11:06:14.915Z,962.40
2023-03-17T11:07:14.593Z,962.36
2023-03-17T11:08:14.766Z,962.39
2023-03-17T11:09:14.594Z,962.35
2023-03-17T11:10:14.714Z,962.39
2023-03-17T11:11:14.561Z,962.38
2023-03-17T11:12:14.727Z,962.39
2023-03-17T11:13:14.573Z,962.33
2023-03-17T11:14:14.625Z,962.40
2023-03-17T11:15:14.491Z,962.27
2023-03-17T11:16:14.704Z,962.31
2023-03-17T11:17:14.506Z,962.31
2023-03-17T11:18:14.670Z,962.27
2023-03-17T11:19:14.443Z,962.27
2023-03-17T11:20:14.600Z,962.27
2023-03-17T11:21:14.430Z,962.23
2023-03-17T11:22:14.628Z,962.25
2023-03-17T11:23:14.403Z,962.18
2023-03-17T11:25:17.325Z,962.15
2023-03-17T11:26:18.168Z,962.10
2023-03-17T11:27:18.239Z,962.15
2023-03-17T11:28:18.160Z,962.09
2023-03-17T11:29:18.332Z,962.07
2023-03-17T11:30:18.213Z,962.05
2023-03-17T11:31:18.202Z,962.03
2023-03-17T11:32:18.126Z,962.02
2023-03-17T11:33:18.246Z,962.01
2023-03-17T11:34:18.089Z,962.00
2023-03-17T11:35:18.262Z,961.91
2023-03-17T11:36:18.073Z,961.94
2023-03-17T11:37:18.282Z,961.90
2023-03-17T11:38:18.023Z,961.93
2023-03-17T11:39:18.189Z,961.92
2023-03-17T11:40:18.006Z,961.90
2023-03-17T11:41:18.313Z,961.82
2023-03-17T11:42:18.004Z,961.87
2023-03-17T11:43:18.239Z,961.89
2023-03-17T11:44:17.947Z,961.84
2023-03-17T11:45:18.133Z,961.86
2023-03-17T11:46:18.036Z,961.82
2023-03-17T11:47:18.023Z,961.87
2023-03-17T11:48:17.921Z,961.83
2023-03-17T11:49:18.048Z,961.79
2023-03-17T11:50:17.930Z,961.81
2023-03-17T11:51:17.997Z,961.84
2023-03-17T11:52:17.869Z,961.77
2023-03-17T11:53:18.019Z,961.75
2023-03-17T11:54:17.832Z,961.71
2023-03-17T11:55:18.084Z,961.73
2023-03-17T11:56:17.835Z,961.70
2023-03-17T11:57:17.905Z,961.77
2023-03-17T11:58:17.842Z,961.73
2023-03-17T11:59:18.931Z,961.73
2023-03-17T12:00:17.941Z,961.72
2023-03-17T12:01:17.740Z,961.71
2023-03-17T12:02:17.954Z,961.72
2023-03-17T12:03:17.810Z,961.69
2023-03-17T12:04:18.051Z,961.69
2023-03-17T12:05:17.686Z,961.68
2023-03-17T12:06:17.903Z,961.66
2023-03-17T12:07:17.660Z,961.67
2023-03-17T12:08:17.894Z,961.61
2023-03-17T12:09:17.658Z,961.61
2023-03-17T12:10:17.949Z,961.58
2023-03-17T12:11:17.623Z,961.60
2023-03-17T12:12:17.702Z,961.60
2023-03-17T12:13:17.598Z,961.55
2023-03-17T12:14:17.766Z,961.58
2023-03-17T12:15:17.595Z,961.56
2023-03-17T12:16:17.773Z,961.58
2023-03-17T12:17:17.574Z,961.60
2023-03-17T12:18:17.757Z,961.58
2023-03-17T12:19:17.504Z,961.55
2023-03-17T12:20:17.775Z,961.54
2023-03-17T12:21:17.618Z,961.52
2023-03-17T12:22:17.502Z,961.52
2023-03-17T12:23:17.664Z,961.56
2023-03-17T12:24:17.521Z,961.51
2023-03-17T12:25:17.581Z,961.54
2023-03-17T12:26:17.454Z,961.52
2023-03-17T12:27:17.651Z,961.48
2023-03-17T12:28:17.424Z,961.46
2023-03-17T12:29:17.601Z,961.48